sensor_id;sensor_type;location;lat;lon;timestamp;P1;durP1;ratioP1;P2;durP2;ratioP2
75854;SDS011;64502;59.976;30.316;2022-12-08T00:01:20;13.30;;;3.40;;
75854;SDS011;64502;59.976;30.316;2022-12-08T00:03:48;8.23;;;3.83;;
75854;SDS011;64502;59.976;30.316;2022-12-08T00:06:25;10.75;;;3.95;;
75854;SDS011;64502;59.976;30.316;2022-12-08T00:09:14;7.90;;;3.65;;
75854;SDS011;64502;59.976;30.316;2022-12-08T00:11:57;9.85;;;3.33;;
75854;SDS011;64502;59.976;30.316;2022-12-08T00:14:38;9.85;;;3.70;;
75854;SDS011;64502;59.976;30.316;2022-12-08T00:17:06;7.85;;;4.07;;
75854;SDS011;64502;59.976;30.316;2022-12-08T00:19:33;10.15;;;3.83;;
75854;SDS011;64502;59.976;30.316;2022-12-08T00:21:59;9.85;;;4.03;;
75854;SDS011;64502;59.976;30.316;2022-12-08T00:24:28;8.85;;;4.30;;
75854;SDS011;64502;59.976;30.316;2022-12-08T00:26:55;10.57;;;3.92;;
75854;SDS011;64502;59.976;30.316;2022-12-08T00:29:21;7.95;;;3.97;;
75854;SDS011;64502;59.976;30.316;2022-12-08T00:31:47;10.50;;;4.45;;
75854;SDS011;64502;59.976;30.316;2022-12-08T00:34:13;8.18;;;3.70;;
75854;SDS011;64502;59.976;30.316;2022-12-08T00:36:39;11.88;;;4.05;;
75854;SDS011;64502;59.976;30.316;2022-12-08T00:39:05;11.15;;;5.03;;
75854;SDS011;64502;59.976;30.316;2022-12-08T00:41:30;10.57;;;4.35;;
75854;SDS011;64502;59.976;30.316;2022-12-08T00:44:15;10.13;;;3.92;;
75854;SDS011;64502;59.976;30.316;2022-12-08T00:46:43;12.02;;;4.80;;
75854;SDS011;64502;59.976;30.316;2022-12-08T00:49:09;9.15;;;4.20;;
75854;SDS011;64502;59.976;30.316;2022-12-08T00:51:34;8.32;;;3.78;;
75854;SDS011;64502;59.976;30.316;2022-12-08T00:54:00;9.18;;;3.83;;
75854;SDS011;64502;59.976;30.316;2022-12-08T00:56:26;10.45;;;4.07;;
75854;SDS011;64502;59.976;30.316;2022-12-08T00:58:51;11.45;;;4.75;;
75854;SDS011;64502;59.976;30.316;2022-12-08T01:01:17;9.48;;;4.22;;
75854;SDS011;64502;59.976;30.316;2022-12-08T01:03:43;10.20;;;3.88;;
75854;SDS011;64502;59.976;30.316;2022-12-08T01:06:09;10.70;;;4.43;;
75854;SDS011;64502;59.976;30.316;2022-12-08T01:08:35;12.30;;;4.53;;
75854;SDS011;64502;59.976;30.316;2022-12-08T01:11:02;10.57;;;4.82;;
75854;SDS011;64502;59.976;30.316;2022-12-08T01:13:28;11.98;;;4.03;;
75854;SDS011;64502;59.976;30.316;2022-12-08T01:15:53;11.60;;;3.25;;
75854;SDS011;64502;59.976;30.316;2022-12-08T01:18:19;11.15;;;3.42;;
75854;SDS011;64502;59.976;30.316;2022-12-08T01:20:44;15.02;;;6.57;;
75854;SDS011;64502;59.976;30.316;2022-12-08T01:23:10;9.57;;;3.80;;
75854;SDS011;64502;59.976;30.316;2022-12-08T01:25:36;9.95;;;4.35;;
75854;SDS011;64502;59.976;30.316;2022-12-08T01:28:01;11.68;;;5.50;;
75854;SDS011;64502;59.976;30.316;2022-12-08T01:30:27;11.50;;;5.10;;
75854;SDS011;64502;59.976;30.316;2022-12-08T01:32:52;8.77;;;4.18;;
75854;SDS011;64502;59.976;30.316;2022-12-08T01:35:19;8.13;;;4.05;;
75854;SDS011;64502;59.976;30.316;2022-12-08T01:37:44;10.80;;;4.82;;
75854;SDS011;64502;59.976;30.316;2022-12-08T01:40:10;10.18;;;3.75;;
75854;SDS011;64502;59.976;30.316;2022-12-08T01:42:35;11.48;;;4.88;;
75854;SDS011;64502;59.976;30.316;2022-12-08T01:47:51;12.98;;;5.55;;
75854;SDS011;64502;59.976;30.316;2022-12-08T01:50:21;15.65;;;5.28;;
75854;SDS011;64502;59.976;30.316;2022-12-08T01:52:48;10.32;;;4.72;;
75854;SDS011;64502;59.976;30.316;2022-12-08T01:55:25;10.75;;;4.78;;
75854;SDS011;64502;59.976;30.316;2022-12-08T01:57:57;8.88;;;3.67;;
75854;SDS011;64502;59.976;30.316;2022-12-08T02:00:27;10.15;;;4.03;;
75854;SDS011;64502;59.976;30.316;2022-12-08T02:02:54;7.97;;;3.55;;
75854;SDS011;64502;59.976;30.316;2022-12-08T02:05:25;9.95;;;4.18;;
75854;SDS011;64502;59.976;30.316;2022-12-08T02:07:53;9.52;;;4.60;;
75854;SDS011;64502;59.976;30.316;2022-12-08T02:10:21;8.48;;;3.90;;
75854;SDS011;64502;59.976;30.316;2022-12-08T02:12:48;9.70;;;4.88;;
75854;SDS011;64502;59.976;30.316;2022-12-08T02:15:15;14.13;;;4.32;;
75854;SDS011;64502;59.976;30.316;2022-12-08T02:20:52;11.07;;;4.57;;
75854;SDS011;64502;59.976;30.316;2022-12-08T02:26:20;10.30;;;4.78;;
75854;SDS011;64502;59.976;30.316;2022-12-08T02:38:19;7.18;;;3.47;;
75854;SDS011;64502;59.976;30.316;2022-12-08T02:45:40;13.60;;;5.88;;
75854;SDS011;64502;59.976;30.316;2022-12-08T02:48:13;10.93;;;4.97;;
75854;SDS011;64502;59.976;30.316;2022-12-08T02:50:39;12.68;;;5.60;;
75854;SDS011;64502;59.976;30.316;2022-12-08T02:53:04;14.48;;;5.88;;
75854;SDS011;64502;59.976;30.316;2022-12-08T03:01:18;13.10;;;5.70;;
75854;SDS011;64502;59.976;30.316;2022-12-08T03:04:05;15.52;;;6.57;;
75854;SDS011;64502;59.976;30.316;2022-12-08T03:06:41;12.45;;;5.97;;
75854;SDS011;64502;59.976;30.316;2022-12-08T03:09:19;15.05;;;5.65;;
75854;SDS011;64502;59.976;30.316;2022-12-08T03:11:48;13.73;;;4.90;;
75854;SDS011;64502;59.976;30.316;2022-12-08T03:14:25;12.93;;;5.32;;
75854;SDS011;64502;59.976;30.316;2022-12-08T03:16:54;11.32;;;5.38;;
75854;SDS011;64502;59.976;30.316;2022-12-08T03:19:23;10.57;;;4.65;;
75854;SDS011;64502;59.976;30.316;2022-12-08T03:21:52;11.50;;;4.60;;
75854;SDS011;64502;59.976;30.316;2022-12-08T03:24:27;14.18;;;6.18;;
75854;SDS011;64502;59.976;30.316;2022-12-08T03:27:06;11.93;;;4.85;;
75854;SDS011;64502;59.976;30.316;2022-12-08T03:29:34;17.77;;;6.78;;
75854;SDS011;64502;59.976;30.316;2022-12-08T03:32:21;13.85;;;5.68;;
75854;SDS011;64502;59.976;30.316;2022-12-08T03:34:52;15.77;;;5.32;;
75854;SDS011;64502;59.976;30.316;2022-12-08T03:37:20;10.55;;;4.50;;
75854;SDS011;64502;59.976;30.316;2022-12-08T03:39:45;13.90;;;6.28;;
75854;SDS011;64502;59.976;30.316;2022-12-08T03:42:11;13.90;;;5.00;;
75854;SDS011;64502;59.976;30.316;2022-12-08T03:44:37;12.52;;;6.72;;
75854;SDS011;64502;59.976;30.316;2022-12-08T03:47:02;12.07;;;5.00;;
75854;SDS011;64502;59.976;30.316;2022-12-08T03:49:28;15.55;;;5.35;;
75854;SDS011;64502;59.976;30.316;2022-12-08T03:51:53;12.40;;;5.22;;
75854;SDS011;64502;59.976;30.316;2022-12-08T03:54:18;10.15;;;4.70;;
75854;SDS011;64502;59.976;30.316;2022-12-08T03:56:44;15.50;;;5.63;;
75854;SDS011;64502;59.976;30.316;2022-12-08T03:59:10;10.23;;;4.60;;
75854;SDS011;64502;59.976;30.316;2022-12-08T04:01:35;11.68;;;5.03;;
75854;SDS011;64502;59.976;30.316;2022-12-08T04:04:01;10.18;;;5.47;;
75854;SDS011;64502;59.976;30.316;2022-12-08T04:06:26;10.18;;;4.22;;
75854;SDS011;64502;59.976;30.316;2022-12-08T04:08:52;15.27;;;4.90;;
75854;SDS011;64502;59.976;30.316;2022-12-08T04:11:18;13.27;;;5.30;;
75854;SDS011;64502;59.976;30.316;2022-12-08T04:13:44;13.50;;;5.20;;
75854;SDS011;64502;59.976;30.316;2022-12-08T04:16:14;10.23;;;3.83;;
75854;SDS011;64502;59.976;30.316;2022-12-08T04:18:44;11.07;;;4.22;;
75854;SDS011;64502;59.976;30.316;2022-12-08T04:21:10;12.38;;;5.18;;
75854;SDS011;64502;59.976;30.316;2022-12-08T04:23:36;11.32;;;4.78;;
75854;SDS011;64502;59.976;30.316;2022-12-08T04:26:01;13.63;;;4.88;;
75854;SDS011;64502;59.976;30.316;2022-12-08T04:28:28;10.82;;;5.15;;
75854;SDS011;64502;59.976;30.316;2022-12-08T04:30:53;9.50;;;4.32;;
75854;SDS011;64502;59.976;30.316;2022-12-08T04:33:19;10.95;;;4.35;;
75854;SDS011;64502;59.976;30.316;2022-12-08T04:35:44;11.15;;;5.20;;
75854;SDS011;64502;59.976;30.316;2022-12-08T04:38:10;12.00;;;5.97;;
75854;SDS011;64502;59.976;30.316;2022-12-08T04:40:35;12.85;;;5.75;;
75854;SDS011;64502;59.976;30.316;2022-12-08T04:43:01;11.50;;;4.78;;
75854;SDS011;64502;59.976;30.316;2022-12-08T04:45:26;13.25;;;6.03;;
75854;SDS011;64502;59.976;30.316;2022-12-08T04:47:52;12.23;;;5.40;;
75854;SDS011;64502;59.976;30.316;2022-12-08T04:50:17;10.95;;;5.43;;
75854;SDS011;64502;59.976;30.316;2022-12-08T04:52:43;13.15;;;5.63;;
75854;SDS011;64502;59.976;30.316;2022-12-08T04:55:08;12.38;;;5.45;;
75854;SDS011;64502;59.976;30.316;2022-12-08T04:57:34;13.50;;;5.53;;
75854;SDS011;64502;59.976;30.316;2022-12-08T04:59:59;14.10;;;5.53;;
75854;SDS011;64502;59.976;30.316;2022-12-08T05:02:25;11.55;;;4.25;;
75854;SDS011;64502;59.976;30.316;2022-12-08T05:04:50;14.10;;;6.85;;
75854;SDS011;64502;59.976;30.316;2022-12-08T05:07:16;13.32;;;5.22;;
75854;SDS011;64502;59.976;30.316;2022-12-08T05:09:42;12.43;;;5.03;;
75854;SDS011;64502;59.976;30.316;2022-12-08T05:12:08;10.13;;;4.57;;
75854;SDS011;64502;59.976;30.316;2022-12-08T05:14:34;9.35;;;4.45;;
75854;SDS011;64502;59.976;30.316;2022-12-08T05:16:59;12.25;;;4.78;;
75854;SDS011;64502;59.976;30.316;2022-12-08T05:19:25;11.00;;;5.22;;
75854;SDS011;64502;59.976;30.316;2022-12-08T05:21:50;11.52;;;5.07;;
75854;SDS011;64502;59.976;30.316;2022-12-08T05:24:16;9.55;;;4.50;;
75854;SDS011;64502;59.976;30.316;2022-12-08T05:26:41;11.02;;;4.82;;
75854;SDS011;64502;59.976;30.316;2022-12-08T05:29:07;10.98;;;4.75;;
75854;SDS011;64502;59.976;30.316;2022-12-08T05:31:32;9.38;;;4.70;;
75854;SDS011;64502;59.976;30.316;2022-12-08T05:33:58;8.55;;;3.95;;
75854;SDS011;64502;59.976;30.316;2022-12-08T05:36:24;9.98;;;5.20;;
75854;SDS011;64502;59.976;30.316;2022-12-08T05:38:49;8.82;;;4.00;;
75854;SDS011;64502;59.976;30.316;2022-12-08T05:41:16;12.00;;;4.93;;
75854;SDS011;64502;59.976;30.316;2022-12-08T05:43:44;10.05;;;4.53;;
75854;SDS011;64502;59.976;30.316;2022-12-08T05:46:09;10.70;;;4.43;;
75854;SDS011;64502;59.976;30.316;2022-12-08T05:48:36;10.38;;;4.55;;
75854;SDS011;64502;59.976;30.316;2022-12-08T05:51:02;10.15;;;4.97;;
75854;SDS011;64502;59.976;30.316;2022-12-08T05:53:27;12.95;;;5.40;;
75854;SDS011;64502;59.976;30.316;2022-12-08T05:55:53;13.73;;;4.57;;
75854;SDS011;64502;59.976;30.316;2022-12-08T05:58:19;8.85;;;4.78;;
75854;SDS011;64502;59.976;30.316;2022-12-08T06:00:47;8.32;;;4.53;;
75854;SDS011;64502;59.976;30.316;2022-12-08T06:03:14;9.35;;;4.30;;
75854;SDS011;64502;59.976;30.316;2022-12-08T06:05:41;10.05;;;4.65;;
75854;SDS011;64502;59.976;30.316;2022-12-08T06:08:07;11.02;;;5.25;;
75854;SDS011;64502;59.976;30.316;2022-12-08T06:10:33;9.85;;;4.70;;
75854;SDS011;64502;59.976;30.316;2022-12-08T06:12:59;10.75;;;4.35;;
75854;SDS011;64502;59.976;30.316;2022-12-08T06:15:24;12.85;;;4.95;;
75854;SDS011;64502;59.976;30.316;2022-12-08T06:17:50;11.15;;;4.45;;
75854;SDS011;64502;59.976;30.316;2022-12-08T06:20:15;13.13;;;5.22;;
75854;SDS011;64502;59.976;30.316;2022-12-08T06:22:41;10.15;;;4.72;;
75854;SDS011;64502;59.976;30.316;2022-12-08T06:25:07;10.52;;;5.07;;
75854;SDS011;64502;59.976;30.316;2022-12-08T06:27:33;10.68;;;4.55;;
75854;SDS011;64502;59.976;30.316;2022-12-08T06:29:59;12.93;;;4.35;;
75854;SDS011;64502;59.976;30.316;2022-12-08T06:32:24;10.90;;;4.45;;
75854;SDS011;64502;59.976;30.316;2022-12-08T06:34:50;9.07;;;4.43;;
75854;SDS011;64502;59.976;30.316;2022-12-08T06:37:16;12.85;;;5.25;;
75854;SDS011;64502;59.976;30.316;2022-12-08T06:39:42;10.65;;;5.22;;
75854;SDS011;64502;59.976;30.316;2022-12-08T06:42:07;12.85;;;5.63;;
75854;SDS011;64502;59.976;30.316;2022-12-08T06:44:51;15.25;;;4.75;;
75854;SDS011;64502;59.976;30.316;2022-12-08T06:47:17;11.73;;;5.15;;
75854;SDS011;64502;59.976;30.316;2022-12-08T06:49:48;12.85;;;5.47;;
75854;SDS011;64502;59.976;30.316;2022-12-08T06:52:13;10.65;;;5.40;;
75854;SDS011;64502;59.976;30.316;2022-12-08T06:54:39;12.57;;;4.40;;
75854;SDS011;64502;59.976;30.316;2022-12-08T06:57:05;9.95;;;4.90;;
75854;SDS011;64502;59.976;30.316;2022-12-08T06:59:31;10.00;;;5.15;;
75854;SDS011;64502;59.976;30.316;2022-12-08T07:01:57;10.45;;;5.28;;
75854;SDS011;64502;59.976;30.316;2022-12-08T07:04:22;11.55;;;5.32;;
75854;SDS011;64502;59.976;30.316;2022-12-08T07:06:48;11.80;;;5.47;;
75854;SDS011;64502;59.976;30.316;2022-12-08T07:09:13;13.45;;;4.72;;
75854;SDS011;64502;59.976;30.316;2022-12-08T07:11:39;11.60;;;5.30;;
75854;SDS011;64502;59.976;30.316;2022-12-08T07:14:04;14.07;;;5.88;;
75854;SDS011;64502;59.976;30.316;2022-12-08T07:16:30;10.52;;;4.55;;
75854;SDS011;64502;59.976;30.316;2022-12-08T07:18:55;14.60;;;6.20;;
75854;SDS011;64502;59.976;30.316;2022-12-08T07:21:21;12.27;;;5.13;;
75854;SDS011;64502;59.976;30.316;2022-12-08T07:23:47;9.93;;;4.40;;
75854;SDS011;64502;59.976;30.316;2022-12-08T07:26:13;10.98;;;5.72;;
75854;SDS011;64502;59.976;30.316;2022-12-08T07:28:39;10.30;;;4.68;;
75854;SDS011;64502;59.976;30.316;2022-12-08T07:31:07;10.30;;;5.28;;
75854;SDS011;64502;59.976;30.316;2022-12-08T07:33:44;11.25;;;4.57;;
75854;SDS011;64502;59.976;30.316;2022-12-08T07:36:10;9.23;;;4.45;;
75854;SDS011;64502;59.976;30.316;2022-12-08T07:38:35;11.75;;;4.57;;
75854;SDS011;64502;59.976;30.316;2022-12-08T07:41:01;11.50;;;4.53;;
75854;SDS011;64502;59.976;30.316;2022-12-08T07:43:26;11.00;;;5.72;;
75854;SDS011;64502;59.976;30.316;2022-12-08T07:45:52;12.75;;;5.15;;
75854;SDS011;64502;59.976;30.316;2022-12-08T07:48:18;7.50;;;3.78;;
75854;SDS011;64502;59.976;30.316;2022-12-08T07:50:43;8.88;;;3.67;;
75854;SDS011;64502;59.976;30.316;2022-12-08T07:53:09;10.75;;;4.55;;
75854;SDS011;64502;59.976;30.316;2022-12-08T07:55:39;7.55;;;3.88;;
75854;SDS011;64502;59.976;30.316;2022-12-08T07:58:07;10.68;;;5.45;;
75854;SDS011;64502;59.976;30.316;2022-12-08T08:00:32;10.45;;;4.97;;
75854;SDS011;64502;59.976;30.316;2022-12-08T08:02:58;10.25;;;4.53;;
75854;SDS011;64502;59.976;30.316;2022-12-08T08:05:24;7.75;;;3.63;;
75854;SDS011;64502;59.976;30.316;2022-12-08T08:07:49;9.73;;;4.80;;
75854;SDS011;64502;59.976;30.316;2022-12-08T08:10:15;14.45;;;5.03;;
75854;SDS011;64502;59.976;30.316;2022-12-08T08:12:41;11.45;;;5.68;;
75854;SDS011;64502;59.976;30.316;2022-12-08T08:15:07;9.75;;;4.55;;
75854;SDS011;64502;59.976;30.316;2022-12-08T08:17:33;10.10;;;4.05;;
75854;SDS011;64502;59.976;30.316;2022-12-08T08:20:00;13.20;;;4.90;;
75854;SDS011;64502;59.976;30.316;2022-12-08T08:22:26;12.18;;;5.18;;
75854;SDS011;64502;59.976;30.316;2022-12-08T08:24:52;13.48;;;4.80;;
75854;SDS011;64502;59.976;30.316;2022-12-08T08:27:18;11.68;;;5.13;;
75854;SDS011;64502;59.976;30.316;2022-12-08T08:29:44;8.82;;;4.32;;
75854;SDS011;64502;59.976;30.316;2022-12-08T08:32:10;11.13;;;4.70;;
75854;SDS011;64502;59.976;30.316;2022-12-08T08:34:37;12.10;;;5.38;;
75854;SDS011;64502;59.976;30.316;2022-12-08T08:37:04;11.38;;;5.72;;
75854;SDS011;64502;59.976;30.316;2022-12-08T08:39:29;10.80;;;4.82;;
75854;SDS011;64502;59.976;30.316;2022-12-08T08:41:56;12.13;;;5.32;;
75854;SDS011;64502;59.976;30.316;2022-12-08T08:44:21;10.35;;;4.65;;
75854;SDS011;64502;59.976;30.316;2022-12-08T08:46:47;11.23;;;5.43;;
75854;SDS011;64502;59.976;30.316;2022-12-08T08:49:12;12.55;;;5.20;;
75854;SDS011;64502;59.976;30.316;2022-12-08T08:51:38;14.55;;;5.60;;
75854;SDS011;64502;59.976;30.316;2022-12-08T08:54:03;13.07;;;5.80;;
75854;SDS011;64502;59.976;30.316;2022-12-08T08:56:29;15.48;;;5.40;;
75854;SDS011;64502;59.976;30.316;2022-12-08T08:58:54;10.18;;;4.28;;
75854;SDS011;64502;59.976;30.316;2022-12-08T09:01:21;12.15;;;5.53;;
75854;SDS011;64502;59.976;30.316;2022-12-08T09:03:49;13.98;;;5.57;;
75854;SDS011;64502;59.976;30.316;2022-12-08T09:06:15;12.90;;;5.57;;
75854;SDS011;64502;59.976;30.316;2022-12-08T09:08:41;11.35;;;5.47;;
75854;SDS011;64502;59.976;30.316;2022-12-08T09:11:07;10.90;;;5.13;;
75854;SDS011;64502;59.976;30.316;2022-12-08T09:13:33;12.40;;;6.07;;
75854;SDS011;64502;59.976;30.316;2022-12-08T09:16:00;15.05;;;4.88;;
75854;SDS011;64502;59.976;30.316;2022-12-08T09:18:26;12.40;;;5.65;;
75854;SDS011;64502;59.976;30.316;2022-12-08T09:20:52;9.27;;;4.85;;
75854;SDS011;64502;59.976;30.316;2022-12-08T09:23:18;12.25;;;5.00;;
75854;SDS011;64502;59.976;30.316;2022-12-08T09:25:43;10.23;;;5.32;;
75854;SDS011;64502;59.976;30.316;2022-12-08T09:28:09;10.70;;;4.70;;
75854;SDS011;64502;59.976;30.316;2022-12-08T09:30:35;12.35;;;5.32;;
75854;SDS011;64502;59.976;30.316;2022-12-08T09:33:00;12.32;;;5.90;;
75854;SDS011;64502;59.976;30.316;2022-12-08T09:35:26;12.55;;;6.03;;
75854;SDS011;64502;59.976;30.316;2022-12-08T09:37:51;10.75;;;5.13;;
75854;SDS011;64502;59.976;30.316;2022-12-08T09:40:18;10.80;;;5.30;;
75854;SDS011;64502;59.976;30.316;2022-12-08T09:45:39;9.88;;;4.88;;
75854;SDS011;64502;59.976;30.316;2022-12-08T09:48:09;11.63;;;5.20;;
75854;SDS011;64502;59.976;30.316;2022-12-08T09:50:40;10.90;;;5.10;;
75854;SDS011;64502;59.976;30.316;2022-12-08T09:53:12;10.98;;;5.88;;
75854;SDS011;64502;59.976;30.316;2022-12-08T09:55:48;13.25;;;5.63;;
75854;SDS011;64502;59.976;30.316;2022-12-08T10:00:56;14.38;;;5.97;;
75854;SDS011;64502;59.976;30.316;2022-12-08T10:03:23;11.70;;;5.82;;
75854;SDS011;64502;59.976;30.316;2022-12-08T10:05:59;11.20;;;5.40;;
75854;SDS011;64502;59.976;30.316;2022-12-08T10:08:48;10.65;;;4.88;;
75854;SDS011;64502;59.976;30.316;2022-12-08T10:14:37;15.73;;;6.00;;
75854;SDS011;64502;59.976;30.316;2022-12-08T10:19:46;10.05;;;4.97;;
75854;SDS011;64502;59.976;30.316;2022-12-08T10:22:22;8.88;;;4.90;;
75854;SDS011;64502;59.976;30.316;2022-12-08T10:24:56;13.68;;;6.03;;
75854;SDS011;64502;59.976;30.316;2022-12-08T10:27:24;11.63;;;5.57;;
75854;SDS011;64502;59.976;30.316;2022-12-08T10:29:50;12.57;;;5.68;;
75854;SDS011;64502;59.976;30.316;2022-12-08T10:32:17;10.60;;;5.57;;
75854;SDS011;64502;59.976;30.316;2022-12-08T10:37:23;12.20;;;5.57;;
75854;SDS011;64502;59.976;30.316;2022-12-08T10:39:55;12.15;;;5.78;;
75854;SDS011;64502;59.976;30.316;2022-12-08T10:42:24;12.82;;;5.88;;
75854;SDS011;64502;59.976;30.316;2022-12-08T10:47:27;14.32;;;5.93;;
75854;SDS011;64502;59.976;30.316;2022-12-08T10:50:08;12.70;;;5.95;;
75854;SDS011;64502;59.976;30.316;2022-12-08T10:52:55;11.35;;;5.22;;
75854;SDS011;64502;59.976;30.316;2022-12-08T10:55:51;11.45;;;5.10;;
75854;SDS011;64502;59.976;30.316;2022-12-08T10:58:38;10.85;;;5.05;;
75854;SDS011;64502;59.976;30.316;2022-12-08T11:03:50;16.58;;;5.50;;
75854;SDS011;64502;59.976;30.316;2022-12-08T11:06:24;11.50;;;5.55;;
75854;SDS011;64502;59.976;30.316;2022-12-08T11:08:53;11.68;;;5.38;;
75854;SDS011;64502;59.976;30.316;2022-12-08T11:11:20;12.45;;;5.88;;
75854;SDS011;64502;59.976;30.316;2022-12-08T11:13:47;14.18;;;5.95;;
75854;SDS011;64502;59.976;30.316;2022-12-08T11:16:15;11.95;;;5.75;;
75854;SDS011;64502;59.976;30.316;2022-12-08T11:18:43;11.50;;;5.88;;
75854;SDS011;64502;59.976;30.316;2022-12-08T11:21:16;11.15;;;5.72;;
75854;SDS011;64502;59.976;30.316;2022-12-08T11:23:46;11.75;;;5.05;;
75854;SDS011;64502;59.976;30.316;2022-12-08T11:26:16;12.63;;;5.18;;
75854;SDS011;64502;59.976;30.316;2022-12-08T11:28:56;10.57;;;5.03;;
75854;SDS011;64502;59.976;30.316;2022-12-08T11:34:04;10.65;;;4.78;;
75854;SDS011;64502;59.976;30.316;2022-12-08T11:36:34;10.05;;;4.78;;
75854;SDS011;64502;59.976;30.316;2022-12-08T11:39:00;14.30;;;5.85;;
75854;SDS011;64502;59.976;30.316;2022-12-08T11:41:30;9.27;;;4.63;;
75854;SDS011;64502;59.976;30.316;2022-12-08T11:44:05;11.10;;;5.53;;
75854;SDS011;64502;59.976;30.316;2022-12-08T11:47:00;10.10;;;5.05;;
75854;SDS011;64502;59.976;30.316;2022-12-08T11:49:33;14.25;;;5.45;;
75854;SDS011;64502;59.976;30.316;2022-12-08T11:52:01;15.07;;;5.50;;
75854;SDS011;64502;59.976;30.316;2022-12-08T11:54:56;10.43;;;4.78;;
75854;SDS011;64502;59.976;30.316;2022-12-08T11:57:26;10.73;;;4.53;;
75854;SDS011;64502;59.976;30.316;2022-12-08T11:59:55;12.43;;;5.38;;
75854;SDS011;64502;59.976;30.316;2022-12-08T12:02:23;11.55;;;5.07;;
75854;SDS011;64502;59.976;30.316;2022-12-08T12:18:50;12.20;;;6.07;;
75854;SDS011;64502;59.976;30.316;2022-12-08T12:21:32;12.68;;;5.68;;
75854;SDS011;64502;59.976;30.316;2022-12-08T12:24:03;11.90;;;5.03;;
75854;SDS011;64502;59.976;30.316;2022-12-08T12:26:36;13.93;;;6.47;;
75854;SDS011;64502;59.976;30.316;2022-12-08T12:29:16;10.55;;;5.40;;
75854;SDS011;64502;59.976;30.316;2022-12-08T12:31:47;13.40;;;5.57;;
75854;SDS011;64502;59.976;30.316;2022-12-08T12:36:51;13.63;;;5.22;;
75854;SDS011;64502;59.976;30.316;2022-12-08T12:39:30;11.90;;;5.15;;
75854;SDS011;64502;59.976;30.316;2022-12-08T12:46:55;11.00;;;5.15;;
75854;SDS011;64502;59.976;30.316;2022-12-08T12:52:04;12.70;;;4.97;;
75854;SDS011;64502;59.976;30.316;2022-12-08T12:54:44;12.32;;;4.68;;
75854;SDS011;64502;59.976;30.316;2022-12-08T12:57:48;11.45;;;4.75;;
75854;SDS011;64502;59.976;30.316;2022-12-08T13:00:16;12.10;;;5.20;;
75854;SDS011;64502;59.976;30.316;2022-12-08T13:02:47;10.13;;;4.50;;
75854;SDS011;64502;59.976;30.316;2022-12-08T13:05:15;12.15;;;5.50;;
75854;SDS011;64502;59.976;30.316;2022-12-08T13:07:52;10.75;;;4.53;;
75854;SDS011;64502;59.976;30.316;2022-12-08T13:10:24;11.77;;;4.65;;
75854;SDS011;64502;59.976;30.316;2022-12-08T13:13:03;12.50;;;4.63;;
75854;SDS011;64502;59.976;30.316;2022-12-08T13:15:47;9.05;;;3.85;;
75854;SDS011;64502;59.976;30.316;2022-12-08T13:20:46;9.48;;;4.35;;
75854;SDS011;64502;59.976;30.316;2022-12-08T13:25:52;8.80;;;3.60;;
75854;SDS011;64502;59.976;30.316;2022-12-08T13:36:56;14.55;;;4.32;;
75854;SDS011;64502;59.976;30.316;2022-12-08T13:40:02;10.38;;;3.85;;
75854;SDS011;64502;59.976;30.316;2022-12-08T13:47:36;10.10;;;4.13;;
75854;SDS011;64502;59.976;30.316;2022-12-08T13:55:20;9.15;;;4.05;;
75854;SDS011;64502;59.976;30.316;2022-12-08T13:57:50;8.73;;;4.07;;
75854;SDS011;64502;59.976;30.316;2022-12-08T14:00:19;10.45;;;4.07;;
75854;SDS011;64502;59.976;30.316;2022-12-08T14:02:47;9.90;;;4.50;;
75854;SDS011;64502;59.976;30.316;2022-12-08T14:05:16;8.95;;;3.95;;
75854;SDS011;64502;59.976;30.316;2022-12-08T14:07:44;8.25;;;4.10;;
75854;SDS011;64502;59.976;30.316;2022-12-08T14:10:16;10.57;;;4.78;;
75854;SDS011;64502;59.976;30.316;2022-12-08T14:12:45;9.50;;;4.13;;
75854;SDS011;64502;59.976;30.316;2022-12-08T14:15:15;9.10;;;4.00;;
75854;SDS011;64502;59.976;30.316;2022-12-08T14:17:49;10.60;;;3.85;;
75854;SDS011;64502;59.976;30.316;2022-12-08T14:20:22;8.43;;;3.50;;
75854;SDS011;64502;59.976;30.316;2022-12-08T14:22:49;13.60;;;4.53;;
75854;SDS011;64502;59.976;30.316;2022-12-08T14:25:16;9.18;;;4.22;;
75854;SDS011;64502;59.976;30.316;2022-12-08T14:27:45;11.88;;;4.70;;
75854;SDS011;64502;59.976;30.316;2022-12-08T14:37:40;11.00;;;5.10;;
75854;SDS011;64502;59.976;30.316;2022-12-08T14:43:32;12.55;;;4.45;;
75854;SDS011;64502;59.976;30.316;2022-12-08T14:45:34;9.07;;;4.57;;
75854;SDS011;64502;59.976;30.316;2022-12-08T15:01:40;10.73;;;5.07;;
75854;SDS011;64502;59.976;30.316;2022-12-08T15:09:33;12.55;;;5.95;;
75854;SDS011;64502;59.976;30.316;2022-12-08T15:14:34;12.95;;;5.78;;
75854;SDS011;64502;59.976;30.316;2022-12-08T15:17:02;12.32;;;5.68;;
75854;SDS011;64502;59.976;30.316;2022-12-08T15:19:29;12.45;;;6.05;;
75854;SDS011;64502;59.976;30.316;2022-12-08T15:21:57;15.15;;;6.13;;
75854;SDS011;64502;59.976;30.316;2022-12-08T15:24:33;18.80;;;8.23;;
75854;SDS011;64502;59.976;30.316;2022-12-08T15:26:59;14.70;;;6.25;;
75854;SDS011;64502;59.976;30.316;2022-12-08T15:29:27;12.90;;;5.97;;
75854;SDS011;64502;59.976;30.316;2022-12-08T15:31:56;11.13;;;6.20;;
75854;SDS011;64502;59.976;30.316;2022-12-08T15:34:23;14.32;;;6.15;;
75854;SDS011;64502;59.976;30.316;2022-12-08T15:36:49;10.90;;;5.45;;
75854;SDS011;64502;59.976;30.316;2022-12-08T15:39:20;11.98;;;5.80;;
75854;SDS011;64502;59.976;30.316;2022-12-08T15:41:58;15.38;;;6.53;;
75854;SDS011;64502;59.976;30.316;2022-12-08T15:44:25;15.68;;;7.05;;
75854;SDS011;64502;59.976;30.316;2022-12-08T15:46:51;13.48;;;6.63;;
75854;SDS011;64502;59.976;30.316;2022-12-08T15:49:18;14.05;;;6.68;;
75854;SDS011;64502;59.976;30.316;2022-12-08T15:51:45;13.98;;;6.53;;
75854;SDS011;64502;59.976;30.316;2022-12-08T15:54:11;14.20;;;5.47;;
75854;SDS011;64502;59.976;30.316;2022-12-08T15:56:46;20.65;;;6.57;;
75854;SDS011;64502;59.976;30.316;2022-12-08T15:59:17;14.18;;;6.30;;
75854;SDS011;64502;59.976;30.316;2022-12-08T16:01:47;14.65;;;6.80;;
75854;SDS011;64502;59.976;30.316;2022-12-08T16:04:14;13.60;;;6.35;;
75854;SDS011;64502;59.976;30.316;2022-12-08T16:06:41;11.73;;;5.43;;
75854;SDS011;64502;59.976;30.316;2022-12-08T16:09:16;14.27;;;6.65;;
75854;SDS011;64502;59.976;30.316;2022-12-08T16:11:51;12.23;;;5.63;;
75854;SDS011;64502;59.976;30.316;2022-12-08T16:14:35;13.55;;;6.32;;
75854;SDS011;64502;59.976;30.316;2022-12-08T16:17:01;15.75;;;6.50;;
75854;SDS011;64502;59.976;30.316;2022-12-08T16:19:26;11.77;;;5.85;;
75854;SDS011;64502;59.976;30.316;2022-12-08T16:21:52;14.02;;;6.43;;
75854;SDS011;64502;59.976;30.316;2022-12-08T16:24:18;14.65;;;7.20;;
75854;SDS011;64502;59.976;30.316;2022-12-08T16:26:43;15.60;;;6.53;;
75854;SDS011;64502;59.976;30.316;2022-12-08T16:29:10;15.52;;;6.80;;
75854;SDS011;64502;59.976;30.316;2022-12-08T16:31:42;14.10;;;7.20;;
75854;SDS011;64502;59.976;30.316;2022-12-08T16:34:08;16.67;;;8.10;;
75854;SDS011;64502;59.976;30.316;2022-12-08T16:36:33;17.13;;;7.28;;
75854;SDS011;64502;59.976;30.316;2022-12-08T16:38:59;18.23;;;6.63;;
75854;SDS011;64502;59.976;30.316;2022-12-08T16:41:24;17.67;;;7.53;;
75854;SDS011;64502;59.976;30.316;2022-12-08T16:44:08;17.05;;;7.32;;